sensor_id;sensor_type;location;lat;lon;timestamp;pressure;altitude;pressure_sealevel;temperature;humidity
21361;BME280;10839;43.206;23.550;2022-08-05T00:01:15;97155.25;;;24.11;45.30
21361;BME280;10839;43.206;23.550;2022-08-05T00:03:42;97150.88;;;24.15;45.07
21361;BME280;10839;43.206;23.550;2022-08-05T00:06:09;97147.59;;;23.93;45.74
21361;BME280;10839;43.206;23.550;2022-08-05T00:08:36;97160.50;;;23.97;45.78
21361;BME280;10839;43.206;23.550;2022-08-05T00:11:05;97151.47;;;24.02;45.19
21361;BME280;10839;43.206;23.550;2022-08-05T00:13:33;97148.72;;;23.87;45.88
21361;BME280;10839;43.206;23.550;2022-08-05T00:15:59;97151.47;;;24.02;45.41
21361;BME280;10839;43.206;23.550;2022-08-05T00:18:25;97148.72;;;23.92;45.57
21361;BME280;10839;43.206;23.550;2022-08-05T00:20:51;97149.50;;;23.97;45.65
21361;BME280;10839;43.206;23.550;2022-08-05T00:23:18;97143.75;;;23.84;45.90
21361;BME280;10839;43.206;23.550;2022-08-05T00:25:44;97146.56;;;23.69;46.24
21361;BME280;10839;43.206;23.550;2022-08-05T00:28:10;97149.28;;;23.79;46.05
21361;BME280;10839;43.206;23.550;2022-08-05T00:30:36;97136.06;;;23.86;45.89
21361;BME280;10839;43.206;23.550;2022-08-05T00:33:01;97142.13;;;23.88;45.80
21361;BME280;10839;43.206;23.550;2022-08-05T00:35:27;97147.34;;;23.79;45.92
21361;BME280;10839;43.206;23.550;2022-08-05T00:37:53;97139.94;;;23.80;46.04
21361;BME280;10839;43.206;23.550;2022-08-05T00:40:21;97139.97;;;23.75;46.06
21361;BME280;10839;43.206;23.550;2022-08-05T00:42:47;97145.44;;;23.75;46.02
21361;BME280;10839;43.206;23.550;2022-08-05T00:45:13;97143.22;;;23.87;45.84
21361;BME280;10839;43.206;23.550;2022-08-05T00:47:39;97141.53;;;23.96;45.63
21361;BME280;10839;43.206;23.550;2022-08-05T00:50:06;97138.84;;;23.81;45.97
21361;BME280;10839;43.206;23.550;2022-08-05T00:52:32;97136.09;;;23.81;45.96
21361;BME280;10839;43.206;23.550;2022-08-05T00:54:58;97138.34;;;23.64;46.23
21361;BME280;10839;43.206;23.550;2022-08-05T00:57:24;97135.53;;;23.79;45.92
21361;BME280;10839;43.206;23.550;2022-08-05T00:59:49;97128.44;;;23.68;46.08
21361;BME280;10839;43.206;23.550;2022-08-05T01:02:15;97139.41;;;23.78;46.15
21361;BME280;10839;43.206;23.550;2022-08-05T01:04:41;97130.03;;;23.79;45.93
21361;BME280;10839;43.206;23.550;2022-08-05T01:07:07;97130.03;;;23.74;45.98
21361;BME280;10839;43.206;23.550;2022-08-05T01:09:32;97129.25;;;23.68;46.08
21361;BME280;10839;43.206;23.550;2022-08-05T01:12:02;97132.25;;;23.82;45.88
21361;BME280;10839;43.206;23.550;2022-08-05T01:27:59;97139.44;;;23.48;46.49
21361;BME280;10839;43.206;23.550;2022-08-05T01:30:33;97140.53;;;23.57;46.31
21361;BME280;10839;43.206;23.550;2022-08-05T01:33:06;97136.16;;;23.46;46.64
21361;BME280;10839;43.206;23.550;2022-08-05T01:35:37;97140.81;;;23.55;46.45
21361;BME280;10839;43.206;23.550;2022-08-05T01:38:05;97132.06;;;23.43;46.52
21361;BME280;10839;43.206;23.550;2022-08-05T01:40:34;97153.19;;;23.58;46.23
21361;BME280;10839;43.206;23.550;2022-08-05T01:43:01;97140.00;;;23.55;46.04
21361;BME280;10839;43.206;23.550;2022-08-05T01:45:32;97142.72;;;23.70;45.97
21361;BME280;10839;43.206;23.550;2022-08-05T01:48:00;97139.41;;;23.68;45.91
21361;BME280;10839;43.206;23.550;2022-08-05T01:50:30;97140.81;;;23.55;46.28
21361;BME280;10839;43.206;23.550;2022-08-05T01:53:02;97138.84;;;23.71;45.88
21361;BME280;10839;43.206;23.550;2022-08-05T01:55:32;97144.34;;;23.71;46.05
21361;BME280;10839;43.206;23.550;2022-08-05T01:57:58;97145.47;;;23.65;46.05
21361;BME280;10839;43.206;23.550;2022-08-05T02:00:25;97138.09;;;23.55;46.36
21361;BME280;10839;43.206;23.550;2022-08-05T02:02:58;97139.44;;;23.63;46.19
21361;BME280;10839;43.206;23.550;2022-08-05T02:05:30;97134.72;;;23.78;45.82
21361;BME280;10839;43.206;23.550;2022-08-05T02:07:58;97129.25;;;23.68;46.07
21361;BME280;10839;43.206;23.550;2022-08-05T02:10:31;97132.31;;;23.47;46.56
21361;BME280;10839;43.206;23.550;2022-08-05T02:13:32;97130.66;;;23.46;46.76
21361;BME280;10839;43.206;23.550;2022-08-05T02:16:27;97141.09;;;23.69;46.40
21361;BME280;10839;43.206;23.550;2022-08-05T02:19:02;97139.09;;;23.84;46.11
21361;BME280;10839;43.206;23.550;2022-08-05T02:21:34;97142.66;;;23.90;46.05
21361;BME280;10839;43.206;23.550;2022-08-05T02:24:05;97144.88;;;23.78;46.51
21361;BME280;10839;43.206;23.550;2022-08-05T02:26:43;97158.94;;;23.66;47.25
21361;BME280;10839;43.206;23.550;2022-08-05T02:29:12;97155.91;;;23.63;47.55
21361;BME280;10839;43.206;23.550;2022-08-05T02:31:42;97168.00;;;23.72;47.49
21361;BME280;10839;43.206;23.550;2022-08-05T02:34:09;97166.59;;;23.74;47.62
21361;BME280;10839;43.206;23.550;2022-08-05T02:36:41;97161.41;;;23.58;48.49
21361;BME280;10839;43.206;23.550;2022-08-05T02:39:09;97162.53;;;23.57;48.42
21361;BME280;10839;43.206;23.550;2022-08-05T02:41:36;97169.69;;;23.33;48.77
21361;BME280;10839;43.206;23.550;2022-08-05T02:44:07;97162.78;;;22.90;49.57
21361;BME280;10839;43.206;23.550;2022-08-05T02:46:35;97163.06;;;22.99;49.34
21361;BME280;10839;43.206;23.550;2022-08-05T02:49:04;97168.25;;;22.85;49.26
21361;BME280;10839;43.206;23.550;2022-08-05T02:51:30;97163.63;;;23.06;48.70
21361;BME280;10839;43.206;23.550;2022-08-05T02:53:57;97160.59;;;23.07;48.19
21361;BME280;10839;43.206;23.550;2022-08-05T02:56:25;97165.81;;;23.14;48.21
21361;BME280;10839;43.206;23.550;2022-08-05T02:58:53;97164.13;;;23.03;48.12
21361;BME280;10839;43.206;23.550;2022-08-05T03:01:23;97155.63;;;22.94;48.69
21361;BME280;10839;43.206;23.550;2022-08-05T03:03:53;97148.47;;;22.73;49.16
21361;BME280;10839;43.206;23.550;2022-08-05T03:06:20;97148.72;;;22.66;49.62
21361;BME280;10839;43.206;23.550;2022-08-05T03:08:48;97164.34;;;22.66;49.57
21361;BME280;10839;43.206;23.550;2022-08-05T03:11:23;97160.28;;;22.84;49.04
21361;BME280;10839;43.206;23.550;2022-08-05T03:13:50;97157.56;;;22.99;48.50
21361;BME280;10839;43.206;23.550;2022-08-05T03:16:16;97161.09;;;22.74;49.09
21361;BME280;10839;43.206;23.550;2022-08-05T03:18:42;97159.72;;;22.82;49.22
21361;BME280;10839;43.206;23.550;2022-08-05T03:21:08;97165.22;;;22.87;48.90
21361;BME280;10839;43.206;23.550;2022-08-05T03:23:36;97162.47;;;22.76;49.23
21361;BME280;10839;43.206;23.550;2022-08-05T03:26:03;97163.56;;;22.75;49.17
21361;BME280;10839;43.206;23.550;2022-08-05T03:28:29;97163.03;;;22.89;48.93
21361;BME280;10839;43.206;23.550;2022-08-05T03:30:56;97150.69;;;23.01;48.32
21361;BME280;10839;43.206;23.550;2022-08-05T03:33:24;97159.78;;;23.22;47.91
21361;BME280;10839;43.206;23.550;2022-08-05T03:35:52;97163.63;;;23.06;48.20
21361;BME280;10839;43.206;23.550;2022-08-05T03:38:17;97162.00;;;23.35;47.43
21361;BME280;10839;43.206;23.550;2022-08-05T03:40:44;97160.25;;;23.84;46.42
21361;BME280;10839;43.206;23.550;2022-08-05T03:43:11;97164.00;;;24.33;45.19
21361;BME280;10839;43.206;23.550;2022-08-05T03:45:37;97174.31;;;25.10;43.44
21361;BME280;10839;43.206;23.550;2022-08-05T03:48:03;97162.41;;;25.53;42.67
21361;BME280;10839;43.206;23.550;2022-08-05T03:50:50;97167.13;;;25.48;42.39
21361;BME280;10839;43.206;23.550;2022-08-05T03:53:25;97168.19;;;25.80;42.37
21361;BME280;10839;43.206;23.550;2022-08-05T03:56:04;97171.13;;;25.89;42.10
21361;BME280;10839;43.206;23.550;2022-08-05T03:58:34;97167.91;;;26.34;40.65
21361;BME280;10839;43.206;23.550;2022-08-05T04:01:03;97175.31;;;27.68;39.00
21361;BME280;10839;43.206;23.550;2022-08-05T04:03:33;97171.25;;;28.79;37.00
21361;BME280;10839;43.206;23.550;2022-08-05T04:06:03;97168.38;;;28.44;36.86
21361;BME280;10839;43.206;23.550;2022-08-05T04:08:31;97165.28;;;28.32;37.20
21361;BME280;10839;43.206;23.550;2022-08-05T04:10:58;97180.94;;;30.15;34.97
21361;BME280;10839;43.206;23.550;2022-08-05T04:13:25;97175.28;;;29.67;35.96
21361;BME280;10839;43.206;23.550;2022-08-05T04:15:52;97174.31;;;28.24;38.13
21361;BME280;10839;43.206;23.550;2022-08-05T04:18:22;97178.75;;;28.52;37.67
21361;BME280;10839;43.206;23.550;2022-08-05T04:20:56;97167.97;;;28.77;37.50
21361;BME280;10839;43.206;23.550;2022-08-05T04:23:24;97175.31;;;29.09;36.66
21361;BME280;10839;43.206;23.550;2022-08-05T04:25:50;97178.50;;;30.13;35.46
21361;BME280;10839;43.206;23.550;2022-08-05T04:28:18;97171.22;;;29.95;35.64
21361;BME280;10839;43.206;23.550;2022-08-05T04:30:45;97163.22;;;30.72;34.60
21361;BME280;10839;43.206;23.550;2022-08-05T04:33:12;97166.44;;;32.27;32.32
21361;BME280;10839;43.206;23.550;2022-08-05T04:35:38;97171.84;;;31.35;33.04
21361;BME280;10839;43.206;23.550;2022-08-05T04:38:04;97173.88;;;30.31;34.67
21361;BME280;10839;43.206;23.550;2022-08-05T04:40:37;97173.25;;;30.34;35.00
21361;BME280;10839;43.206;23.550;2022-08-05T04:43:04;97168.56;;;31.67;32.64
21361;BME280;10839;43.206;23.550;2022-08-05T04:45:30;97171.78;;;32.03;32.68
21361;BME280;10839;43.206;23.550;2022-08-05T04:48:10;97168.56;;;34.45;29.50
21361;BME280;10839;43.206;23.550;2022-08-05T04:50:52;97173.91;;;33.93;29.73
21361;BME280;10839;43.206;23.550;2022-08-05T04:53:18;97180.81;;;34.64;28.78
21361;BME280;10839;43.206;23.550;2022-08-05T04:55:45;97175.22;;;32.09;32.18
21361;BME280;10839;43.206;23.550;2022-08-05T04:58:13;97175.38;;;33.91;30.52
21361;BME280;10839;43.206;23.550;2022-08-05T05:00:40;97172.88;;;34.54;29.13
21361;BME280;10839;43.206;23.550;2022-08-05T05:03:07;97168.47;;;34.90;28.70
21361;BME280;10839;43.206;23.550;2022-08-05T05:05:33;97188.91;;;36.52;26.58
21361;BME280;10839;43.206;23.550;2022-08-05T05:08:07;97184.47;;;36.67;26.54
21361;BME280;10839;43.206;23.550;2022-08-05T05:10:42;97172.44;;;34.76;28.38
21361;BME280;10839;43.206;23.550;2022-08-05T05:13:09;97177.22;;;34.19;29.02
21361;BME280;10839;43.206;23.550;2022-08-05T05:15:35;97172.19;;;34.81;28.31
21361;BME280;10839;43.206;23.550;2022-08-05T05:18:01;97177.63;;;36.06;26.92
21361;BME280;10839;43.206;23.550;2022-08-05T05:20:27;97175.31;;;33.46;29.50
21361;BME280;10839;43.206;23.550;2022-08-05T05:22:53;97172.19;;;33.27;29.72
21361;BME280;10839;43.206;23.550;2022-08-05T05:25:19;97178.94;;;33.79;29.41
21361;BME280;10839;43.206;23.550;2022-08-05T05:27:45;97174.72;;;35.35;27.77
21361;BME280;10839;43.206;23.550;2022-08-05T05:30:12;97176.56;;;36.26;26.59
21361;BME280;10839;43.206;23.550;2022-08-05T05:32:39;97177.16;;;36.78;26.34
21361;BME280;10839;43.206;23.550;2022-08-05T05:35:05;97171.44;;;37.75;24.65
21361;BME280;10839;43.206;23.550;2022-08-05T05:37:31;97179.22;;;38.04;24.48
21361;BME280;10839;43.206;23.550;2022-08-05T05:39:57;97176.19;;;38.99;23.52
21361;BME280;10839;43.206;23.550;2022-08-05T05:42:23;97166.84;;;39.18;23.65
21361;BME280;10839;43.206;23.550;2022-08-05T05:44:48;97178.81;;;40.30;22.37
21361;BME280;10839;43.206;23.550;2022-08-05T05:47:14;97180.66;;;39.86;22.64
21361;BME280;10839;43.206;23.550;2022-08-05T05:49:40;97171.44;;;40.22;22.30
21361;BME280;10839;43.206;23.550;2022-08-05T05:52:06;97174.03;;;41.28;21.06
21361;BME280;10839;43.206;23.550;2022-08-05T05:54:32;97170.44;;;42.07;20.43
21361;BME280;10839;43.206;23.550;2022-08-05T05:56:58;97173.16;;;40.30;21.89
21361;BME280;10839;43.206;23.550;2022-08-05T05:59:24;97176.41;;;40.32;21.87
21361;BME280;10839;43.206;23.550;2022-08-05T06:01:50;97181.28;;;41.22;21.30
21361;BME280;10839;43.206;23.550;2022-08-05T06:04:16;97181.34;;;41.98;20.64
21361;BME280;10839;43.206;23.550;2022-08-05T06:06:43;97170.34;;;41.85;20.74
21361;BME280;10839;43.206;23.550;2022-08-05T06:09:09;97181.09;;;42.52;19.51
21361;BME280;10839;43.206;23.550;2022-08-05T06:11:36;97178.69;;;41.57;20.08
21361;BME280;10839;43.206;23.550;2022-08-05T06:14:02;97187.25;;;41.71;19.56
21361;BME280;10839;43.206;23.550;2022-08-05T06:16:28;97188.28;;;40.92;20.73
21361;BME280;10839;43.206;23.550;2022-08-05T06:18:53;97192.25;;;41.96;19.97
21361;BME280;10839;43.206;23.550;2022-08-05T06:21:19;97185.28;;;41.14;20.17
21361;BME280;10839;43.206;23.550;2022-08-05T06:23:45;97189.09;;;40.92;20.60
21361;BME280;10839;43.206;23.550;2022-08-05T06:26:12;97191.50;;;41.41;19.69
21361;BME280;10839;43.206;23.550;2022-08-05T06:28:38;97193.38;;;41.19;20.07
21361;BME280;10839;43.206;23.550;2022-08-05T06:31:04;97186.44;;;41.74;19.72
21361;BME280;10839;43.206;23.550;2022-08-05T06:33:30;97192.44;;;41.08;19.80
21361;BME280;10839;43.206;23.550;2022-08-05T06:35:55;97183.75;;;41.27;19.88
21361;BME280;10839;43.206;23.550;2022-08-05T06:38:21;97195.13;;;41.41;19.61
21361;BME280;10839;43.206;23.550;2022-08-05T06:40:47;97188.50;;;41.13;19.99
21361;BME280;10839;43.206;23.550;2022-08-05T06:43:13;97187.81;;;41.33;19.90
21361;BME280;10839;43.206;23.550;2022-08-05T06:45:39;97191.91;;;41.39;19.92
21361;BME280;10839;43.206;23.550;2022-08-05T06:48:05;97187.00;;;41.36;19.42
21361;BME280;10839;43.206;23.550;2022-08-05T06:50:31;97191.31;;;41.16;19.90
21361;BME280;10839;43.206;23.550;2022-08-05T06:52:56;97188.16;;;40.74;20.56
21361;BME280;10839;43.206;23.550;2022-08-05T06:55:22;97186.22;;;40.85;19.92
21361;BME280;10839;43.206;23.550;2022-08-05T06:57:48;97189.19;;;40.59;19.99
21361;BME280;10839;43.206;23.550;2022-08-05T07:00:14;97190.25;;;40.44;20.44
21361;BME280;10839;43.206;23.550;2022-08-05T07:02:44;97192.72;;;40.49;20.48
21361;BME280;10839;43.206;23.550;2022-08-05T07:05:10;97186.81;;;40.28;20.99
21361;BME280;10839;43.206;23.550;2022-08-05T07:07:38;97191.72;;;40.31;20.94
21361;BME280;10839;43.206;23.550;2022-08-05T07:10:05;97185.56;;;40.62;20.70
21361;BME280;10839;43.206;23.550;2022-08-05T07:12:31;97195.53;;;40.89;20.45
21361;BME280;10839;43.206;23.550;2022-08-05T07:15:15;97183.19;;;40.64;21.13
21361;BME280;10839;43.206;23.550;2022-08-05T07:18:16;97189.47;;;40.47;20.59
21361;BME280;10839;43.206;23.550;2022-08-05T07:20:42;97189.38;;;40.77;20.72
21361;BME280;10839;43.206;23.550;2022-08-05T07:23:08;97198.03;;;41.01;20.67
21361;BME280;10839;43.206;23.550;2022-08-05T07:25:33;97194.72;;;40.89;21.00
21361;BME280;10839;43.206;23.550;2022-08-05T07:28:00;97188.97;;;40.78;20.94
21361;BME280;10839;43.206;23.550;2022-08-05T07:30:26;97193.00;;;40.77;20.75
21361;BME280;10839;43.206;23.550;2022-08-05T07:32:52;97196.50;;;40.67;20.45
21361;BME280;10839;43.206;23.550;2022-08-05T07:35:18;97197.16;;;40.50;21.23
21361;BME280;10839;43.206;23.550;2022-08-05T07:37:44;97195.47;;;40.42;21.42
21361;BME280;10839;43.206;23.550;2022-08-05T07:40:10;97195.09;;;40.47;21.15
21361;BME280;10839;43.206;23.550;2022-08-05T07:42:36;97196.25;;;40.79;21.04
21361;BME280;10839;43.206;23.550;2022-08-05T07:45:01;97203.53;;;40.84;20.18
21361;BME280;10839;43.206;23.550;2022-08-05T07:47:27;97202.91;;;40.60;20.66
21361;BME280;10839;43.206;23.550;2022-08-05T07:49:53;97199.81;;;40.32;21.36
21361;BME280;10839;43.206;23.550;2022-08-05T07:52:20;97205.69;;;40.57;21.41
21361;BME280;10839;43.206;23.550;2022-08-05T07:54:46;97203.34;;;40.26;21.18
21361;BME280;10839;43.206;23.550;2022-08-05T07:57:12;97205.97;;;40.12;21.33
21361;BME280;10839;43.206;23.550;2022-08-05T07:59:38;97211.13;;;40.36;21.44
21361;BME280;10839;43.206;23.550;2022-08-05T08:02:04;97199.59;;;39.56;21.38
21361;BME280;10839;43.206;23.550;2022-08-05T08:04:32;97197.41;;;40.34;21.23
21361;BME280;10839;43.206;23.550;2022-08-05T08:06:57;97196.59;;;40.34;21.35
21361;BME280;10839;43.206;23.550;2022-08-05T08:09:25;97198.50;;;39.93;21.21
21361;BME280;10839;43.206;23.550;2022-08-05T08:11:51;97196.41;;;40.20;21.30
21361;BME280;10839;43.206;23.550;2022-08-05T08:14:17;97201.47;;;40.37;20.87
21361;BME280;10839;43.206;23.550;2022-08-05T08:16:43;97188.69;;;40.50;20.62
21361;BME280;10839;43.206;23.550;2022-08-05T08:19:09;97189.22;;;40.26;20.51
21361;BME280;10839;43.206;23.550;2022-08-05T08:21:35;97204.00;;;40.49;20.64
21361;BME280;10839;43.206;23.550;2022-08-05T08:24:01;97204.63;;;40.32;20.05
21361;BME280;10839;43.206;23.550;2022-08-05T08:26:27;97201.47;;;40.37;20.12
21361;BME280;10839;43.206;23.550;2022-08-05T08:28:52;97200.91;;;40.61;20.24
21361;BME280;10839;43.206;23.550;2022-08-05T08:31:18;97194.44;;;39.91;20.89
21361;BME280;10839;43.206;23.550;2022-08-05T08:33:44;97204.16;;;40.66;20.16
21361;BME280;10839;43.206;23.550;2022-08-05T08:36:11;97203.59;;;40.87;19.91
21361;BME280;10839;43.206;23.550;2022-08-05T08:38:36;97190.09;;;40.30;20.07
21361;BME280;10839;43.206;23.550;2022-08-05T08:41:05;97194.25;;;41.30;19.84
21361;BME280;10839;43.206;23.550;2022-08-05T08:43:36;97199.78;;;41.13;19.51
21361;BME280;10839;43.206;23.550;2022-08-05T08:46:02;97195.19;;;40.54;19.87
21361;BME280;10839;43.206;23.550;2022-08-05T08:48:29;97193.84;;;40.08;20.71
21361;BME280;10839;43.206;23.550;2022-08-05T08:50:56;97184.50;;;39.71;20.79
21361;BME280;10839;43.206;23.550;2022-08-05T08:53:23;97197.63;;;40.55;20.54
21361;BME280;10839;43.206;23.550;2022-08-05T08:55:51;97200.34;;;40.85;20.31
21361;BME280;10839;43.206;23.550;2022-08-05T08:58:17;97194.75;;;39.86;20.72
21361;BME280;10839;43.206;23.550;2022-08-05T09:00:43;97183.19;;;38.41;22.13
21361;BME280;10839;43.206;23.550;2022-08-05T09:03:11;97177.28;;;39.17;21.51
21361;BME280;10839;43.206;23.550;2022-08-05T09:05:37;97184.97;;;39.46;21.21
21361;BME280;10839;43.206;23.550;2022-08-05T09:08:03;97173.25;;;39.18;21.28
21361;BME280;10839;43.206;23.550;2022-08-05T09:10:29;97174.31;;;39.33;21.94
21361;BME280;10839;43.206;23.550;2022-08-05T09:16:43;97163.59;;;39.16;20.83
21361;BME280;10839;43.206;23.550;2022-08-05T09:19:08;97169.81;;;39.02;20.33
21361;BME280;10839;43.206;23.550;2022-08-05T09:21:34;97169.44;;;38.81;21.00
21361;BME280;10839;43.206;23.550;2022-08-05T09:24:05;97167.44;;;39.04;20.93
21361;BME280;10839;43.206;23.550;2022-08-05T09:26:34;97158.94;;;37.57;22.42
21361;BME280;10839;43.206;23.550;2022-08-05T09:29:02;97156.91;;;39.01;21.84
21361;BME280;10839;43.206;23.550;2022-08-05T09:31:30;97162.63;;;39.61;21.10
21361;BME280;10839;43.206;23.550;2022-08-05T09:34:01;97162.06;;;38.28;22.65
21361;BME280;10839;43.206;23.550;2022-08-05T09:36:43;97152.44;;;39.26;21.69
21361;BME280;10839;43.206;23.550;2022-08-05T09:39:12;97152.13;;;39.58;21.25
21361;BME280;10839;43.206;23.550;2022-08-05T09:41:54;97155.59;;;39.21;21.95
21361;BME280;10839;43.206;23.550;2022-08-05T09:44:34;97150.81;;;39.81;21.79
21361;BME280;10839;43.206;23.550;2022-08-05T09:47:16;97156.16;;;40.23;21.12
21361;BME280;10839;43.206;23.550;2022-08-05T09:49:53;97144.53;;;39.95;20.96
21361;BME280;10839;43.206;23.550;2022-08-05T09:52:31;97146.63;;;40.01;20.73
21361;BME280;10839;43.206;23.550;2022-08-05T09:54:58;97143.09;;;40.08;20.75
21361;BME280;10839;43.206;23.550;2022-08-05T09:57:44;97142.06;;;39.90;21.22
21361;BME280;10839;43.206;23.550;2022-08-05T10:00:19;97131.03;;;39.48;21.77
21361;BME280;10839;43.206;23.550;2022-08-05T10:02:47;97140.50;;;39.63;21.81
21361;BME280;10839;43.206;23.550;2022-08-05T10:05:23;97126.41;;;39.63;21.62
21361;BME280;10839;43.206;23.550;2022-08-05T10:08:00;97132.41;;;38.79;22.09
21361;BME280;10839;43.206;23.550;2022-08-05T10:10:31;97130.56;;;39.16;21.92
21361;BME280;10839;43.206;23.550;2022-08-05T10:12:59;97133.25;;;39.35;21.67
21361;BME280;10839;43.206;23.550;2022-08-05T10:15:32;97125.94;;;39.01;21.55
21361;BME280;10839;43.206;23.550;2022-08-05T10:20:56;97124.25;;;39.23;21.48
21361;BME280;10839;43.206;23.550;2022-08-05T10:23:27;97114.50;;;39.80;20.94
21361;BME280;10839;43.206;23.550;2022-08-05T10:25:55;97110.84;;;38.42;22.73
21361;BME280;10839;43.206;23.550;2022-08-05T10:28:21;97112.78;;;38.60;22.40
21361;BME280;10839;43.206;23.550;2022-08-05T10:30:47;97110.97;;;39.23;21.61
21361;BME280;10839;43.206;23.550;2022-08-05T10:33:13;97107.59;;;39.74;21.35
21361;BME280;10839;43.206;23.550;2022-08-05T10:35:39;97103.69;;;39.48;21.63
21361;BME280;10839;43.206;23.550;2022-08-05T10:38:06;97097.59;;;39.80;21.17
21361;BME280;10839;43.206;23.550;2022-08-05T10:40:43;97110.28;;;39.60;21.82
21361;BME280;10839;43.206;23.550;2022-08-05T10:43:38;97096.94;;;39.57;21.17
21361;BME280;10839;43.206;23.550;2022-08-05T10:46:11;97100.97;;;39.89;20.96
21361;BME280;10839;43.206;23.550;2022-08-05T10:48:39;97096.59;;;39.95;20.95
21361;BME280;10839;43.206;23.550;2022-08-05T10:51:14;97085.06;;;38.88;21.35
21361;BME280;10839;43.206;23.550;2022-08-05T10:56:23;97077.91;;;37.59;22.71
21361;BME280;10839;43.206;23.550;2022-08-05T10:59:02;97079.56;;;37.60;22.55
21361;BME280;10839;43.206;23.550;2022-08-05T11:01:41;97075.47;;;37.19;23.34
21361;BME280;10839;43.206;23.550;2022-08-05T11:04:10;97076.19;;;37.92;22.66
21361;BME280;10839;43.206;23.550;2022-08-05T11:09:51;97073.66;;;37.27;22.58
21361;BME280;10839;43.206;23.550;2022-08-05T11:15:09;97075.06;;;36.67;23.30
21361;BME280;10839;43.206;23.550;2022-08-05T11:17:41;97064.69;;;37.59;22.67
21361;BME280;10839;43.206;23.550;2022-08-05T11:20:38;97070.38;;;37.82;22.80
21361;BME280;10839;43.206;23.550;2022-08-05T11:28:43;97058.41;;;38.30;21.85
21361;BME280;10839;43.206;23.550;2022-08-05T11:33:52;97059.47;;;38.97;21.43
21361;BME280;10839;43.206;23.550;2022-08-05T11:36:47;97059.34;;;38.86;21.45
21361;BME280;10839;43.206;23.550;2022-08-05T11:39:16;97050.66;;;38.46;21.91
21361;BME280;10839;43.206;23.550;2022-08-05T11:41:49;97060.63;;;38.66;21.91
21361;BME280;10839;43.206;23.550;2022-08-05T11:44:19;97052.47;;;38.12;21.78
21361;BME280;10839;43.206;23.550;2022-08-05T11:46:50;97044.91;;;38.39;21.84
21361;BME280;10839;43.206;23.550;2022-08-05T11:49:18;97053.56;;;38.53;21.65
21361;BME280;10839;43.206;23.550;2022-08-05T11:51:47;97045.25;;;38.60;21.95
21361;BME280;10839;43.206;23.550;2022-08-05T11:56:53;97037.66;;;37.93;22.45
21361;BME280;10839;43.206;23.550;2022-08-05T11:59:22;97036.63;;;37.82;22.02
21361;BME280;10839;43.206;23.550;2022-08-05T12:04:21;97030.19;;;37.40;22.83
21361;BME280;10839;43.206;23.550;2022-08-05T12:06:48;97031.84;;;35.74;23.79
21361;BME280;10839;43.206;23.550;2022-08-05T12:09:17;97031.16;;;36.74;23.53
21361;BME280;10839;43.206;23.550;2022-08-05T12:11:45;97027.22;;;36.94;23.28
21361;BME280;10839;43.206;23.550;2022-08-05T12:14:12;97033.03;;;36.51;23.15
21361;BME280;10839;43.206;23.550;2022-08-05T12:16:40;97035.31;;;36.80;23.07
21361;BME280;10839;43.206;23.550;2022-08-05T12:19:08;97021.75;;;37.20;22.90
21361;BME280;10839;43.206;23.550;2022-08-05T12:21:43;97019.38;;;37.22;22.82
21361;BME280;10839;43.206;23.550;2022-08-05T12:24:12;97027.41;;;36.51;23.03
21361;BME280;10839;43.206;23.550;2022-08-05T12:26:45;97023.59;;;36.94;23.08
21361;BME280;10839;43.206;23.550;2022-08-05T12:29:14;97031.06;;;37.05;22.75
21361;BME280;10839;43.206;23.550;2022-08-05T12:31:46;97021.00;;;37.23;22.98
21361;BME280;10839;43.206;23.550;2022-08-05T12:34:13;97017.25;;;36.62;23.18
21361;BME280;10839;43.206;23.550;2022-08-05T12:36:40;97014.63;;;36.88;23.01
21361;BME280;10839;43.206;23.550;2022-08-05T12:39:06;97018.06;;;37.36;22.64
21361;BME280;10839;43.206;23.550;2022-08-05T12:41:35;97011.72;;;37.39;22.50
21361;BME280;10839;43.206;23.550;2022-08-05T12:44:07;97011.56;;;37.70;22.27
21361;BME280;10839;43.206;23.550;2022-08-05T12:46:35;97008.75;;;37.51;22.57
21361;BME280;10839;43.206;23.550;2022-08-05T12:49:08;97012.38;;;37.32;22.61
21361;BME280;10839;43.206;23.550;2022-08-05T12:51:48;97001.00;;;37.67;21.62
21361;BME280;10839;43.206;23.550;2022-08-05T12:54:28;97000.09;;;37.21;22.92
21361;BME280;10839;43.206;23.550;2022-08-05T12:57:00;96993.03;;;37.27;22.34
21361;BME280;10839;43.206;23.550;2022-08-05T12:59:41;96989.16;;;36.78;22.92
21361;BME280;10839;43.206;23.550;2022-08-05T13:02:08;96990.28;;;37.50;22.13
21361;BME280;10839;43.206;23.550;2022-08-05T13:04:39;96978.72;;;36.59;23.07
21361;BME280;10839;43.206;23.550;2022-08-05T13:07:11;96982.44;;;36.82;23.12
21361;BME280;10839;43.206;23.550;2022-08-05T13:09:46;96982.81;;;36.31;23.53
21361;BME280;10839;43.206;23.550;2022-08-05T13:12:14;96978.53;;;36.33;23.70
21361;BME280;10839;43.206;23.550;2022-08-05T13:19:41;96978.50;;;35.55;24.57
21361;BME280;10839;43.206;23.550;2022-08-05T13:22:07;96972.75;;;34.17;25.65
21361;BME280;10839;43.206;23.550;2022-08-05T13:24:33;96975.78;;;34.24;25.88
21361;BME280;10839;43.206;23.550;2022-08-05T13:26:59;96968.66;;;33.91;26.51
21361;BME280;10839;43.206;23.550;2022-08-05T13:29:25;96969.72;;;34.22;25.98
21361;BME280;10839;43.206;23.550;2022-08-05T13:31:51;96977.38;;;34.37;25.88
21361;BME280;10839;43.206;23.550;2022-08-05T13:34:17;96970.34;;;34.67;25.31
21361;BME280;10839;43.206;23.550;2022-08-05T13:36:43;96963.97;;;34.67;25.26
21361;BME280;10839;43.206;23.550;2022-08-05T13:39:09;96973.69;;;34.21;26.01
21361;BME280;10839;43.206;23.550;2022-08-05T13:41:35;96969.47;;;34.63;25.40
21361;BME280;10839;43.206;23.550;2022-08-05T13:44:02;96966.41;;;34.68;25.19
21361;BME280;10839;43.206;23.550;2022-08-05T13:46:28;96967.63;;;34.83;25.22